Time;durP1;ratioP1;P1;durP2;ratioP2;P2;SDS_P1;SDS_P2;PMS_P1;PMS_P2;Temp;Humidity;BMP_temperature;BMP_pressure;BME280_temperature;BME280_humidity;BME280_pressure;Samples;Min_cycle;Max_cycle;Signal;HPM_P1;HPM_P2
2022/05/04 00:02:23;;;;;;;12.27;4.85;;;9.30;99.90;;;;;;5097835;28;20175;-70
2022/05/04 00:04:49;;;;;;;10.65;5.18;;;9.30;99.90;;;;;;5087456;28;20091;-70
2022/05/04 00:07:15;;;;;;;13.75;5.35;;;9.30;99.90;;;;;;5112255;27;20047;-70
2022/05/04 00:09:40;;;;;;;11.65;4.93;;;9.30;99.90;;;;;;5095020;28;20119;-70
2022/05/04 00:12:06;;;;;;;13.13;5.00;;;9.30;99.90;;;;;;5092775;28;20101;-70
2022/05/04 00:14:32;;;;;;;14.73;4.70;;;9.30;99.90;;;;;;5092278;27;20039;-70
2022/05/04 00:16:58;;;;;;;14.68;4.55;;;9.30;99.90;;;;;;5108850;27;20130;-70
2022/05/04 00:19:23;;;;;;;15.70;4.80;;;9.30;99.90;;;;;;5092220;27;20039;-70
2022/05/04 00:21:49;;;;;;;15.48;4.88;;;9.30;99.90;;;;;;5090555;28;20046;-70
2022/05/04 00:24:19;;;;;;;12.20;4.93;;;9.30;99.90;;;;;;5096397;28;20441;-70
2022/05/04 00:26:45;;;;;;;13.55;4.38;;;9.20;99.90;;;;;;5095546;28;20399;-70
2022/05/04 00:29:11;;;;;;;13.73;4.60;;;9.20;99.90;;;;;;5089140;28;20036;-70
2022/05/04 00:31:36;;;;;;;14.50;4.90;;;9.20;99.90;;;;;;5100277;28;20092;-70
2022/05/04 00:34:02;;;;;;;13.07;4.90;;;9.20;99.90;;;;;;5098063;28;20112;-70
2022/05/04 00:36:28;;;;;;;18.40;4.78;;;9.20;99.90;;;;;;5101598;28;20039;-70
2022/05/04 00:38:53;;;;;;;16.20;4.68;;;9.20;99.90;;;;;;5088107;28;20047;-70
2022/05/04 00:41:19;;;;;;;14.68;4.30;;;9.20;99.90;;;;;;5098177;28;20039;-70
2022/05/04 00:43:52;;;;;;;11.43;4.78;;;9.20;99.90;;;;;;5103946;28;20039;-70
2022/05/04 00:46:18;;;;;;;14.85;4.88;;;9.30;99.90;;;;;;5100555;28;20047;-70
2022/05/04 00:48:44;;;;;;;20.52;5.38;;;9.20;99.90;;;;;;5093834;28;20060;-70
2022/05/04 00:51:09;;;;;;;14.00;4.47;;;9.20;99.90;;;;;;5097592;28;20046;-70
2022/05/04 00:53:36;;;;;;;16.55;5.00;;;9.20;99.90;;;;;;5103092;28;20052;-70
2022/05/04 00:56:04;;;;;;;14.00;5.20;;;9.20;99.90;;;;;;5108493;28;20050;-70
2022/05/04 01:01:16;;;;;;;16.05;4.75;;;9.10;99.90;;;;;;5085485;28;20469;-71
2022/05/04 01:03:42;;;;;;;12.88;4.20;;;9.10;99.90;;;;;;5092600;28;20036;-70
2022/05/04 01:06:08;;;;;;;15.07;4.97;;;9.10;99.90;;;;;;5099960;28;20062;-70
2022/05/04 01:08:33;;;;;;;11.90;3.97;;;9.10;99.90;;;;;;5112181;28;21072;-70
2022/05/04 01:10:59;;;;;;;11.57;4.65;;;9.10;99.90;;;;;;5099288;28;20208;-70
2022/05/04 01:13:25;;;;;;;15.38;4.60;;;9.10;99.90;;;;;;5088989;28;20036;-70
2022/05/04 01:15:50;;;;;;;15.02;4.60;;;9.10;99.90;;;;;;5107127;28;20046;-70
2022/05/04 01:18:16;;;;;;;11.82;4.50;;;9.00;99.90;;;;;;5095181;28;20554;-70
2022/05/04 01:20:42;;;;;;;13.05;4.45;;;9.00;99.90;;;;;;5107300;28;20047;-70
2022/05/04 01:23:08;;;;;;;16.65;4.55;;;9.10;99.90;;;;;;5102181;28;20047;-70
2022/05/04 01:25:33;;;;;;;16.08;4.68;;;9.10;99.90;;;;;;5096205;28;20704;-70
2022/05/04 01:28:00;;;;;;;12.00;4.55;;;9.00;99.90;;;;;;5088485;28;20044;-70
2022/05/04 01:30:25;;;;;;;14.20;4.50;;;9.10;99.90;;;;;;5102834;28;20039;-70
2022/05/04 01:32:51;;;;;;;14.55;4.90;;;9.00;99.90;;;;;;5088692;28;20036;-70
2022/05/04 01:35:17;;;;;;;13.50;4.60;;;9.00;99.90;;;;;;5102306;28;20040;-70
2022/05/04 01:37:43;;;;;;;10.25;4.25;;;9.00;99.90;;;;;;5095919;27;20051;-70
2022/05/04 01:40:09;;;;;;;12.85;4.38;;;9.00;99.90;;;;;;5095094;28;20096;-70
2022/05/04 01:42:34;;;;;;;12.70;4.80;;;9.00;99.90;;;;;;5090647;28;20040;-70
2022/05/04 01:45:00;;;;;;;15.30;5.53;;;9.00;99.90;;;;;;5109334;28;20035;-70
2022/05/04 01:47:26;;;;;;;12.18;4.32;;;9.00;99.90;;;;;;5089940;27;20052;-70
2022/05/04 01:49:51;;;;;;;13.38;4.30;;;9.00;99.90;;;;;;5091443;27;20048;-70
2022/05/04 01:52:17;;;;;;;14.90;4.63;;;9.00;99.90;;;;;;5101068;28;20036;-70
2022/05/04 01:54:43;;;;;;;12.75;4.20;;;9.00;99.90;;;;;;5108360;27;20039;-70
2022/05/04 01:57:08;;;;;;;11.32;4.10;;;9.00;99.90;;;;;;5091443;27;20059;-70
2022/05/04 01:59:34;;;;;;;13.57;4.90;;;9.00;99.90;;;;;;5090196;27;20392;-70
2022/05/04 02:02:00;;;;;;;13.57;4.30;;;9.00;99.90;;;;;;5098868;27;20066;-70
2022/05/04 02:04:28;;;;;;;12.15;4.25;;;9.00;99.90;;;;;;5106974;27;20048;-70
2022/05/04 02:06:54;;;;;;;11.60;4.28;;;8.90;99.90;;;;;;5108212;27;20644;-70
2022/05/04 02:09:20;;;;;;;12.23;4.43;;;9.00;99.90;;;;;;5105689;27;20040;-70
2022/05/04 02:11:46;;;;;;;13.00;4.25;;;8.90;99.90;;;;;;5089948;28;20053;-70
2022/05/04 02:14:11;;;;;;;12.95;4.25;;;8.90;99.90;;;;;;5089390;27;20047;-70
2022/05/04 02:16:37;;;;;;;13.07;4.05;;;8.90;99.90;;;;;;5094427;27;20525;-70
2022/05/04 02:19:02;;;;;;;13.00;4.07;;;8.90;99.90;;;;;;5106361;28;20335;-70
2022/05/04 02:21:28;;;;;;;11.30;3.67;;;8.90;99.90;;;;;;5091902;27;20132;-70
2022/05/04 02:23:54;;;;;;;13.07;4.22;;;8.80;99.90;;;;;;5113806;27;20475;-70
2022/05/04 02:26:19;;;;;;;12.57;4.15;;;8.90;99.90;;;;;;5097178;27;20036;-70
2022/05/04 02:28:45;;;;;;;14.23;4.20;;;8.80;99.90;;;;;;5105064;27;20044;-70
2022/05/04 02:31:11;;;;;;;15.20;4.88;;;8.90;99.90;;;;;;5096215;28;20051;-70
2022/05/04 02:33:37;;;;;;;12.93;4.53;;;8.80;99.90;;;;;;5099197;27;20838;-70
2022/05/04 02:38:47;;;;;;;11.43;4.43;;;8.80;99.90;;;;;;5090744;28;20040;-70
2022/05/04 02:41:13;;;;;;;15.75;3.97;;;8.80;99.90;;;;;;5103178;27;20049;-70
2022/05/04 02:43:38;;;;;;;14.02;4.20;;;8.80;99.90;;;;;;5098026;27;20035;-70
2022/05/04 02:46:16;;;;;;;12.02;3.40;;;8.80;99.90;;;;;;5095606;28;20600;-70
2022/05/04 02:48:41;;;;;;;13.07;4.10;;;8.80;99.90;;;;;;5102788;27;20044;-71
2022/05/04 02:51:07;;;;;;;13.32;3.97;;;8.80;99.90;;;;;;5094563;27;20071;-70
2022/05/04 02:53:33;;;;;;;11.93;3.92;;;8.80;99.90;;;;;;5090062;27;20424;-70
2022/05/04 02:55:59;;;;;;;12.05;4.18;;;8.70;99.90;;;;;;5090445;28;20543;-70
2022/05/04 02:58:24;;;;;;;12.38;4.10;;;8.70;99.90;;;;;;5103474;27;20046;-70
2022/05/04 03:00:50;;;;;;;12.73;4.13;;;8.70;99.90;;;;;;5104330;28;20583;-70
2022/05/04 03:03:16;;;;;;;13.70;4.75;;;8.70;99.90;;;;;;5109961;27;20047;-70
2022/05/04 03:05:41;;;;;;;11.73;3.92;;;8.70;99.90;;;;;;5097705;27;20040;-70
2022/05/04 03:08:07;;;;;;;17.25;4.22;;;8.80;99.90;;;;;;5102697;27;20123;-70
2022/05/04 03:11:54;;;;;;;12.32;4.00;;;8.70;99.90;;;;;;5100437;27;20054;-70
2022/05/04 03:13:18;;;;;;;11.82;3.47;;;8.80;99.90;;;;;;5100799;28;20044;-70
2022/05/04 03:15:43;;;;;;;16.92;4.28;;;8.70;99.90;;;;;;5091860;27;20044;-71
2022/05/04 03:18:09;;;;;;;13.45;4.28;;;8.70;99.90;;;;;;5103169;27;20031;-70
2022/05/04 03:20:35;;;;;;;13.02;4.03;;;8.70;99.90;;;;;;5106386;28;20043;-70
2022/05/04 03:23:00;;;;;;;13.20;4.20;;;8.60;99.90;;;;;;5093149;27;20115;-70
2022/05/04 03:25:26;;;;;;;16.30;4.90;;;8.60;99.90;;;;;;5108256;27;20040;-70
2022/05/04 03:27:52;;;;;;;14.45;4.22;;;8.60;99.90;;;;;;5101510;28;20048;-70
2022/05/04 03:30:18;;;;;;;15.25;4.32;;;8.60;99.90;;;;;;5095097;27;20040;-69
2022/05/04 03:32:43;;;;;;;15.63;4.32;;;8.60;99.90;;;;;;5095886;27;20482;-69
2022/05/04 03:35:09;;;;;;;13.50;4.50;;;8.60;99.90;;;;;;5094395;27;20039;-69
2022/05/04 03:37:34;;;;;;;13.80;4.10;;;8.60;99.90;;;;;;5108486;27;20623;-69
2022/05/04 03:40:00;;;;;;;10.57;4.18;;;8.50;99.90;;;;;;5109003;28;20521;-69
2022/05/04 03:42:26;;;;;;;11.57;4.18;;;8.50;99.90;;;;;;5095857;27;20074;-69
2022/05/04 03:44:51;;;;;;;12.65;4.43;;;8.50;99.90;;;;;;5092549;27;20035;-69
2022/05/04 03:47:17;;;;;;;10.93;4.20;;;8.50;99.90;;;;;;5108649;27;20058;-69
2022/05/04 03:49:42;;;;;;;11.27;4.20;;;8.50;99.90;;;;;;5105345;27;20036;-70
2022/05/04 03:52:09;;;;;;;13.43;3.92;;;8.40;99.90;;;;;;5109201;28;20071;-70
2022/05/04 03:54:35;;;;;;;14.70;4.53;;;8.40;99.90;;;;;;5096609;27;20502;-69
2022/05/04 03:57:01;;;;;;;11.65;3.88;;;8.40;99.90;;;;;;5105026;27;20051;-72
2022/05/04 03:59:26;;;;;;;16.75;4.65;;;8.40;99.90;;;;;;5107219;27;20027;-72
2022/05/04 04:01:52;;;;;;;13.25;4.13;;;8.40;99.90;;;;;;5103171;27;20570;-72
2022/05/04 04:04:18;;;;;;;10.48;3.80;;;8.40;99.90;;;;;;5099261;28;20051;-72
2022/05/04 04:06:43;;;;;;;13.55;4.28;;;8.40;99.90;;;;;;5093289;28;20048;-70
2022/05/04 04:09:09;;;;;;;14.00;4.15;;;8.40;99.90;;;;;;5095744;28;20113;-69
2022/05/04 04:11:34;;;;;;;9.68;3.92;;;8.40;99.90;;;;;;5097616;28;20127;-69
2022/05/04 04:14:00;;;;;;;12.40;3.90;;;8.40;99.90;;;;;;5106625;27;20128;-69
2022/05/04 04:16:25;;;;;;;14.18;4.28;;;8.40;99.90;;;;;;5090489;28;20043;-69
2022/05/04 04:18:51;;;;;;;13.82;3.63;;;8.30;99.90;;;;;;5088342;28;20052;-69
2022/05/04 04:24:01;;;;;;;14.93;4.10;;;8.40;99.90;;;;;;5098465;28;20135;-70
2022/05/04 04:26:27;;;;;;;14.00;4.30;;;8.40;99.90;;;;;;5097109;28;20127;-69
2022/05/04 04:28:52;;;;;;;12.40;3.90;;;8.40;99.90;;;;;;5088654;27;20059;-69
2022/05/04 04:31:18;;;;;;;14.52;4.47;;;8.40;99.90;;;;;;5087987;28;20537;-69
2022/05/04 04:33:43;;;;;;;14.15;4.10;;;8.40;99.90;;;;;;5103761;28;20072;-70
2022/05/04 04:36:09;;;;;;;12.45;4.13;;;8.40;99.90;;;;;;5107024;28;20082;-72
2022/05/04 04:38:35;;;;;;;12.23;4.28;;;8.40;99.90;;;;;;5104181;28;20504;-72
2022/05/04 04:41:00;;;;;;;13.50;4.50;;;8.50;99.90;;;;;;5106821;28;20043;-72
2022/05/04 04:43:26;;;;;;;13.27;4.25;;;8.40;99.90;;;;;;5103404;28;20403;-72
2022/05/04 04:45:52;;;;;;;12.15;4.20;;;8.50;99.90;;;;;;5090768;28;20035;-72
2022/05/04 04:48:18;;;;;;;13.63;4.50;;;8.50;99.90;;;;;;5094359;28;20081;-72
2022/05/04 04:50:47;;;;;;;12.27;4.28;;;8.50;99.90;;;;;;5102761;28;20043;-72
2022/05/04 04:53:14;;;;;;;13.77;4.00;;;8.50;99.90;;;;;;5104437;28;20048;-70
2022/05/04 04:55:41;;;;;;;18.27;4.20;;;8.50;99.90;;;;;;5100878;28;20071;-71
2022/05/04 04:58:06;;;;;;;18.50;4.80;;;8.60;99.90;;;;;;5095856;28;20740;-71
2022/05/04 05:00:32;;;;;;;14.02;4.30;;;8.60;99.90;;;;;;5089353;28;20851;-70
2022/05/04 05:02:57;;;;;;;13.93;4.65;;;8.70;99.90;;;;;;5096684;28;20058;-70
2022/05/04 05:05:23;;;;;;;13.73;4.10;;;8.70;99.90;;;;;;5096570;28;20466;-70
2022/05/04 05:07:49;;;;;;;13.30;4.18;;;8.80;99.90;;;;;;5092023;27;20076;-70
2022/05/04 05:10:14;;;;;;;10.73;3.63;;;8.80;99.90;;;;;;5096961;27;20043;-70
2022/05/04 05:12:40;;;;;;;11.77;4.32;;;8.90;99.90;;;;;;5102743;28;20054;-70
2022/05/04 05:17:50;;;;;;;13.43;3.80;;;9.00;99.90;;;;;;5097136;27;20040;-70
2022/05/04 05:20:17;;;;;;;10.48;3.63;;;9.10;99.90;;;;;;5107999;27;20055;-70
2022/05/04 05:22:43;;;;;;;13.68;4.20;;;9.10;99.90;;;;;;5094372;27;20133;-70
2022/05/04 05:25:08;;;;;;;13.45;3.83;;;9.20;99.90;;;;;;5094243;27;20498;-70
2022/05/04 05:27:34;;;;;;;11.25;3.95;;;9.20;99.90;;;;;;5110741;28;20438;-70
2022/05/04 05:29:59;;;;;;;12.65;3.35;;;9.30;99.90;;;;;;5095831;27;20406;-70
2022/05/04 05:32:25;;;;;;;12.60;4.13;;;9.30;99.90;;;;;;5093652;27;20040;-71
2022/05/04 05:34:54;;;;;;;11.10;3.70;;;9.20;99.90;;;;;;5103330;28;20044;-70
2022/05/04 05:37:20;;;;;;;12.80;3.85;;;9.30;99.90;;;;;;5096196;27;20042;-70
2022/05/04 05:39:52;;;;;;;8.77;3.47;;;9.30;99.90;;;;;;5101435;27;20044;-70
2022/05/04 05:42:28;;;;;;;11.32;3.55;;;9.30;99.90;;;;;;5098460;27;20089;-70
2022/05/04 05:44:54;;;;;;;8.57;3.17;;;9.30;99.90;;;;;;5094194;27;20119;-70
2022/05/04 05:47:20;;;;;;;11.65;3.45;;;9.40;99.90;;;;;;5095774;27;20044;-70
2022/05/04 05:49:46;;;;;;;14.23;3.80;;;9.40;99.90;;;;;;5098430;28;20063;-70
2022/05/04 05:52:11;;;;;;;14.82;3.90;;;9.50;99.90;;;;;;5102790;27;20042;-70
2022/05/04 05:54:37;;;;;;;11.50;3.78;;;9.50;99.90;;;;;;5105833;27;20039;-70
2022/05/04 05:57:03;;;;;;;11.48;3.10;;;9.50;99.90;;;;;;5101995;27;20134;-70
2022/05/04 05:59:28;;;;;;;10.38;3.25;;;9.50;99.90;;;;;;5091918;27;20035;-70
2022/05/04 06:01:55;;;;;;;9.25;3.08;;;9.50;99.90;;;;;;5096914;27;20061;-70
2022/05/04 06:04:20;;;;;;;11.77;3.03;;;9.50;99.90;;;;;;5101646;27;20502;-70
2022/05/04 06:06:46;;;;;;;13.15;3.35;;;9.50;99.90;;;;;;5105422;27;20043;-70
2022/05/04 06:09:15;;;;;;;7.57;2.80;;;9.50;99.90;;;;;;5102317;28;20047;-70
2022/05/04 06:11:41;;;;;;;8.65;3.10;;;9.60;99.90;;;;;;5111500;28;20043;-70
2022/05/04 06:14:06;;;;;;;9.52;2.90;;;9.60;99.90;;;;;;5105858;28;20051;-70
2022/05/04 06:16:32;;;;;;;11.82;2.92;;;9.70;99.90;;;;;;5089929;27;20056;-69
2022/05/04 06:18:57;;;;;;;8.52;2.78;;;9.70;99.90;;;;;;5090099;27;20032;-70
2022/05/04 06:21:23;;;;;;;10.10;2.85;;;9.70;99.90;;;;;;5097131;27;20044;-69
2022/05/04 06:23:49;;;;;;;10.68;2.90;;;9.80;99.90;;;;;;5095122;28;20039;-69
2022/05/04 06:26:14;;;;;;;13.02;3.60;;;9.80;99.90;;;;;;5099822;27;20411;-70
2022/05/04 06:28:40;;;;;;;11.52;3.53;;;9.80;99.90;;;;;;5100056;27;20040;-70
2022/05/04 06:34:10;;;;;;;9.73;2.83;;;9.90;99.90;;;;;;5102760;28;20044;-70
2022/05/04 06:36:39;;;;;;;15.55;4.43;;;9.90;99.90;;;;;;5094961;27;20067;-70
2022/05/04 06:39:05;;;;;;;10.63;3.40;;;9.80;99.90;;;;;;5094810;27;20187;-69
2022/05/04 06:41:30;;;;;;;14.48;3.70;;;9.80;99.90;;;;;;5097123;27;20040;-69
2022/05/04 06:43:56;;;;;;;12.85;4.10;;;9.90;99.90;;;;;;5102257;27;20654;-70
2022/05/04 06:46:22;;;;;;;10.27;3.17;;;9.90;99.90;;;;;;5094883;27;20042;-70
2022/05/04 06:48:47;;;;;;;11.55;3.80;;;10.00;99.90;;;;;;5098457;27;20047;-69
2022/05/04 06:51:13;;;;;;;14.90;4.00;;;10.10;99.90;;;;;;5093036;27;20418;-70
2022/05/04 06:53:38;;;;;;;11.40;3.30;;;10.10;99.90;;;;;;5100973;27;20035;-72
2022/05/04 06:56:04;;;;;;;10.85;3.70;;;10.20;99.90;;;;;;5091891;27;20083;-75
2022/05/04 06:58:30;;;;;;;10.70;3.53;;;10.20;99.90;;;;;;5103618;28;20071;-74
2022/05/04 07:00:55;;;;;;;12.70;3.53;;;10.30;99.90;;;;;;5108720;28;20043;-76
2022/05/04 07:03:21;;;;;;;14.75;4.32;;;10.40;99.90;;;;;;5093893;28;20047;-75
2022/05/04 07:05:48;;;;;;;11.05;3.60;;;10.40;99.90;;;;;;5089904;28;20082;-74
2022/05/04 07:08:13;;;;;;;16.23;4.25;;;10.50;99.90;;;;;;5099902;28;20117;-75
2022/05/04 07:10:39;;;;;;;12.18;3.90;;;10.50;99.90;;;;;;5095339;27;20086;-74
2022/05/04 07:13:06;;;;;;;12.70;3.60;;;10.50;99.40;;;;;;5107576;28;20044;-73
2022/05/04 07:15:32;;;;;;;11.07;3.63;;;10.60;99.40;;;;;;5119507;27;20047;-73
2022/05/04 07:17:58;;;;;;;9.45;3.80;;;10.60;99.90;;;;;;5095891;28;20047;-74
2022/05/04 07:20:24;;;;;;;11.57;3.70;;;10.70;99.10;;;;;;5103848;27;20147;-72
2022/05/04 07:22:49;;;;;;;15.50;4.15;;;10.80;99.50;;;;;;5102579;28;20054;-71
2022/05/04 07:25:15;;;;;;;8.07;3.38;;;10.80;99.40;;;;;;5106450;28;20495;-72
2022/05/04 07:27:40;;;;;;;9.85;3.30;;;10.90;98.10;;;;;;5089960;28;20042;-72
2022/05/04 07:30:07;;;;;;;12.02;3.65;;;10.90;99.50;;;;;;5091248;28;20594;-72
2022/05/04 07:32:32;;;;;;;12.77;3.60;;;11.00;99.00;;;;;;5109707;28;20043;-69
2022/05/04 07:34:58;;;;;;;12.35;3.88;;;11.00;97.60;;;;;;5109692;28;20039;-73
2022/05/04 07:37:23;;;;;;;11.75;3.30;;;11.10;96.90;;;;;;5105485;27;20079;-71
2022/05/04 07:42:33;;;;;;;8.95;3.22;;;11.20;96.90;;;;;;5088733;28;20084;-73
2022/05/04 07:45:11;;;;;;;8.95;3.50;;;11.20;95.80;;;;;;5090392;28;20066;-73
2022/05/04 07:47:37;;;;;;;9.10;3.28;;;11.30;95.90;;;;;;5100435;28;20104;-73
2022/05/04 07:50:05;;;;;;;10.10;3.90;;;11.30;95.10;;;;;;5091871;28;20059;-73
2022/05/04 07:52:31;;;;;;;11.63;3.70;;;11.30;96.50;;;;;;5105704;27;20048;-73
2022/05/04 07:54:57;;;;;;;9.82;3.20;;;11.40;96.70;;;;;;5091790;27;20089;-74
2022/05/04 07:57:23;;;;;;;10.43;3.70;;;11.40;96.20;;;;;;5104811;27;20044;-73
2022/05/04 08:05:21;;;;;;;9.88;3.63;;;11.60;93.70;;;;;;5106036;27;20051;-75
2022/05/04 08:07:46;;;;;;;10.32;3.22;;;11.60;95.30;;;;;;5102608;27;20051;-74
2022/05/04 08:10:13;;;;;;;8.75;3.50;;;11.70;97.20;;;;;;5109456;28;20096;-75
2022/05/04 08:12:38;;;;;;;11.20;3.60;;;11.70;96.20;;;;;;5108304;28;20047;-75
2022/05/04 08:15:08;;;;;;;9.13;3.42;;;11.80;94.50;;;;;;5107698;27;20104;-75
2022/05/04 08:17:33;;;;;;;10.43;3.50;;;11.80;93.40;;;;;;5087282;28;20105;-75
2022/05/04 08:19:59;;;;;;;11.10;3.70;;;11.80;93.60;;;;;;5089359;28;20040;-75
2022/05/04 08:22:26;;;;;;;9.63;3.42;;;11.90;94.00;;;;;;5087886;28;20119;-75
2022/05/04 08:24:52;;;;;;;10.52;4.28;;;12.00;93.70;;;;;;5087353;28;20048;-75
2022/05/04 08:27:19;;;;;;;10.70;3.50;;;12.10;92.80;;;;;;5106161;28;20096;-75
2022/05/04 08:29:45;;;;;;;13.88;4.15;;;12.10;90.50;;;;;;5091810;28;20052;-75
2022/05/04 08:32:11;;;;;;;11.27;3.78;;;12.00;89.40;;;;;;5088064;28;20051;-75
2022/05/04 08:34:37;;;;;;;16.20;4.10;;;12.00;88.30;;;;;;5088032;28;20044;-75
2022/05/04 08:37:03;;;;;;;11.13;3.97;;;12.00;90.40;;;;;;5092934;28;20094;-74
2022/05/04 08:39:34;;;;;;;8.13;3.85;;;12.00;90.10;;;;;;5092030;28;20517;-74
2022/05/04 08:42:00;;;;;;;9.50;3.80;;;12.00;89.10;;;;;;5105839;28;20044;-73
2022/05/04 08:44:27;;;;;;;9.37;3.80;;;12.10;91.40;;;;;;5105929;27;20046;-74
2022/05/04 08:46:55;;;;;;;9.77;4.22;;;12.20;94.30;;;;;;5095890;27;20050;-74
2022/05/04 08:49:25;;;;;;;;;;;12.30;93.30;;;;;;5093948;28;20051;-74
2022/05/04 08:51:54;;;;;;;12.10;4.00;;;12.40;93.80;;;;;;5107109;27;19927;-74
2022/05/04 08:54:23;;;;;;;11.20;4.53;;;12.40;90.60;;;;;;5099989;27;20398;-78
2022/05/04 08:56:49;;;;;;;10.52;3.80;;;12.40;89.20;;;;;;5093376;28;20643;-72
2022/05/04 08:59:16;;;;;;;11.77;4.15;;;12.40;88.70;;;;;;5099690;28;20136;-73
2022/05/04 09:01:41;;;;;;;11.57;3.97;;;12.40;88.20;;;;;;5092082;28;20127;-76
2022/05/04 09:04:07;;;;;;;9.50;4.22;;;12.40;90.30;;;;;;5102895;27;20126;-73
2022/05/04 09:06:41;;;;;;;8.73;4.05;;;12.40;89.00;;;;;;5111508;28;20050;-72
2022/05/04 09:09:13;;;;;;;8.20;4.15;;;12.40;90.00;;;;;;5101701;27;20044;-72
2022/05/04 09:11:46;;;;;;;9.52;4.25;;;12.50;90.00;;;;;;5092833;28;20181;-73
2022/05/04 09:14:20;;;;;;;11.88;4.10;;;12.40;91.30;;;;;;5098795;27;20048;-73
2022/05/04 09:16:46;;;;;;;11.18;4.18;;;12.50;91.20;;;;;;5107111;28;20043;-72
2022/05/04 09:19:14;;;;;;;10.13;3.72;;;12.40;91.10;;;;;;5100238;27;20487;-73
2022/05/04 09:21:41;;;;;;;14.13;5.07;;;12.40;91.10;;;;;;5099169;27;20056;-72
2022/05/04 09:24:07;;;;;;;9.30;4.07;;;12.30;90.30;;;;;;5091186;27;20115;-71
2022/05/04 09:26:39;;;;;;;11.77;4.93;;;12.40;93.90;;;;;;5096045;28;20055;-74
2022/05/04 09:29:06;;;;;;;11.75;4.63;;;12.50;91.60;;;;;;5100052;28;20048;-75
2022/05/04 09:31:32;;;;;;;11.82;4.10;;;12.60;92.10;;;;;;5102641;27;20050;-75
2022/05/04 09:34:00;;;;;;;8.20;4.68;;;12.70;88.40;;;;;;5096463;28;20088;-74
2022/05/04 09:36:29;;;;;;;;;;;12.80;90.70;;;;;;5118045;27;20389;-80
2022/05/04 09:47:18;;;;;;;13.10;4.97;;;12.80;88.90;;;;;;5091992;27;20147;-77
2022/05/04 09:50:00;;;;;;;11.63;5.78;;;12.60;88.30;;;;;;5092308;27;20062;-76
2022/05/04 09:52:25;;;;;;;15.10;5.00;;;12.60;90.20;;;;;;5107770;27;20135;-75
2022/05/04 09:54:53;;;;;;;12.32;5.15;;;12.70;88.90;;;;;;5100081;27;20126;-76
2022/05/04 09:57:20;;;;;;;14.02;5.00;;;12.60;89.30;;;;;;5107684;28;20044;-75
2022/05/04 09:59:47;;;;;;;10.60;5.03;;;12.60;88.10;;;;;;5106941;27;20044;-75
2022/05/04 10:02:13;;;;;;;11.93;5.27;;;12.70;90.10;;;;;;5099370;27;20444;-77
2022/05/04 10:04:39;;;;;;;9.73;5.45;;;12.80;90.00;;;;;;5112051;28;20123;-75
2022/05/04 10:07:05;;;;;;;11.82;5.22;;;12.80;90.90;;;;;;5103796;27;20043;-73
2022/05/04 10:09:32;;;;;;;10.93;5.07;;;12.90;87.30;;;;;;5108463;27;20064;-75
2022/05/04 10:12:00;;;;;;;11.45;5.15;;;13.00;90.20;;;;;;5111117;28;20491;-74
2022/05/04 10:14:27;;;;;;;12.90;5.68;;;13.10;90.90;;;;;;5108176;28;20844;-74
2022/05/04 10:16:55;;;;;;;10.77;5.38;;;13.10;85.60;;;;;;5097809;28;20043;-80
2022/05/04 10:19:27;;;;;;;11.60;4.97;;;13.20;85.10;;;;;;5109554;27;20539;-78
2022/05/04 10:21:56;;;;;;;11.93;5.20;;;13.20;83.50;;;;;;5111834;28;20490;-76
2022/05/04 10:24:25;;;;;;;11.13;5.38;;;13.30;83.50;;;;;;5102992;27;20088;-78
2022/05/04 10:27:02;;;;;;;10.52;5.13;;;13.30;77.10;;;;;;5093120;28;20062;-78
2022/05/04 10:32:32;;;;;;;13.13;5.45;;;13.50;80.70;;;;;;5109297;28;20047;-78
2022/05/04 10:35:23;;;;;;;10.77;5.60;;;13.50;83.20;;;;;;5092268;28;20036;-80
2022/05/04 10:38:04;;;;;;;11.75;5.40;;;13.60;82.30;;;;;;5095140;27;20051;-78
2022/05/04 10:40:50;;;;;;;10.40;4.97;;;13.50;78.90;;;;;;5099943;27;20048;-74
2022/05/04 10:43:47;;;;;;;9.90;4.60;;;13.50;76.20;;;;;;5098544;28;20042;-76
2022/05/04 10:46:21;;;;;;;11.35;5.07;;;13.50;78.00;;;;;;5111177;28;20072;-76
2022/05/04 10:48:59;;;;;;;13.45;5.50;;;13.60;73.80;;;;;;5104836;27;20048;-76
2022/05/04 10:51:29;;;;;;;11.38;4.93;;;13.70;73.20;;;;;;5088366;27;20055;-75
2022/05/04 10:54:03;;;;;;;12.57;5.53;;;13.80;74.80;;;;;;5090375;28;20036;-76
2022/05/04 10:56:36;;;;;;;15.63;5.65;;;13.90;80.00;;;;;;5102551;27;20043;-76
2022/05/04 10:59:02;;;;;;;10.82;5.03;;;14.10;79.00;;;;;;5093740;28;20056;-75
2022/05/04 11:01:34;;;;;;;12.48;5.82;;;14.20;73.10;;;;;;5102675;27;20439;-71
2022/05/04 11:04:11;;;;;;;9.57;4.90;;;14.30;72.40;;;;;;5104537;27;20051;-73
2022/05/04 11:06:37;;;;;;;;;;;14.20;66.80;;;;;;5099703;28;20050;-74
2022/05/04 11:09:06;;;;;;;11.32;5.35;;;14.20;66.20;;;;;;5106767;28;19924;-74
2022/05/04 11:11:33;;;;;;;12.05;5.53;;;14.10;68.80;;;;;;5095700;27;20035;-73
2022/05/04 11:13:59;;;;;;;10.38;5.30;;;14.20;73.50;;;;;;5097400;28;20424;-73
2022/05/04 11:16:26;;;;;;;14.93;5.75;;;14.30;69.00;;;;;;5095645;27;20040;-73
2022/05/04 11:18:52;;;;;;;9.63;5.28;;;14.30;66.80;;;;;;5092784;28;20043;-74
2022/05/04 11:21:18;;;;;;;12.63;5.57;;;14.30;68.90;;;;;;5103494;27;20035;-75
2022/05/04 11:23:52;;;;;;;11.35;5.53;;;14.30;68.90;;;;;;5089543;28;20040;-75
2022/05/04 11:28:19;;;;;;;10.32;5.30;;;14.30;63.80;;;;;;5051893;28;20191;-75
2022/05/04 11:30:44;;;;;;;27.23;11.27;;;14.40;66.90;;;;;;5098790;28;20131;-74
2022/05/04 11:33:14;;;;;;;31.02;12.57;;;14.30;69.60;;;;;;5061732;28;20131;-74
2022/05/04 11:35:42;;;;;;;13.23;5.93;;;14.20;90.30;;;;;;5077963;28;20409;-73
2022/05/04 11:38:15;;;;;;;31.38;10.07;;;14.20;86.70;;;;;;5086934;28;20045;-71
2022/05/04 11:40:45;;;;;;;12.10;5.50;;;14.20;89.50;;;;;;5051266;28;20072;-73
2022/05/04 11:43:20;;;;;;;9.15;5.07;;;14.30;86.30;;;;;;5045841;28;20048;-72
2022/05/04 11:45:46;;;;;;;10.23;5.05;;;14.40;75.70;;;;;;5076353;28;20132;-72
2022/05/04 11:48:12;;;;;;;11.13;5.03;;;14.50;68.00;;;;;;5061995;28;20095;-72
2022/05/04 11:50:41;;;;;;;12.45;5.45;;;14.70;67.70;;;;;;5049721;28;20394;-72
2022/05/04 11:53:07;;;;;;;9.48;5.05;;;14.70;65.80;;;;;;5046544;28;20045;-80
2022/05/04 11:55:34;;;;;;;10.77;5.30;;;14.80;70.20;;;;;;5058330;28;20116;-74
2022/05/04 11:58:00;;;;;;;12.88;5.32;;;14.80;68.10;;;;;;5085289;28;20471;-72
2022/05/04 12:00:26;;;;;;;12.65;5.28;;;14.90;64.50;;;;;;5061440;28;20133;-70
2022/05/04 12:02:52;;;;;;;9.48;4.45;;;14.90;63.50;;;;;;5052561;28;20025;-72
2022/05/04 12:05:18;;;;;;;8.10;4.80;;;14.90;60.40;;;;;;5077869;28;20072;-70
2022/05/04 12:07:44;;;;;;;9.63;4.80;;;14.90;61.20;;;;;;5050341;28;20042;-70
2022/05/04 12:10:10;;;;;;;9.35;5.07;;;14.90;61.90;;;;;;5046129;28;20045;-73
2022/05/04 12:12:37;;;;;;;11.52;5.40;;;15.00;61.40;;;;;;5051959;28;20041;-72
2022/05/04 12:15:04;;;;;;;14.55;5.93;;;15.10;67.60;;;;;;5061823;28;20044;-72
2022/05/04 12:17:29;;;;;;;9.25;5.03;;;15.30;71.20;;;;;;5055085;28;20520;-70
2022/05/04 12:19:55;;;;;;;18.75;5.57;;;15.50;65.20;;;;;;5057754;28;20072;-73
2022/05/04 12:22:21;;;;;;;11.20;4.93;;;15.50;62.80;;;;;;5089641;28;20039;-72
2022/05/04 12:24:47;;;;;;;11.13;5.38;;;15.50;61.20;;;;;;5077599;28;20095;-72
2022/05/04 12:27:13;;;;;;;10.48;4.80;;;15.50;59.10;;;;;;5042465;28;20052;-71
2022/05/04 12:35:09;;;;;;;11.15;5.10;;;15.60;67.60;;;;;;5054028;28;19927;-72
2022/05/04 12:37:35;;;;;;;9.82;4.60;;;15.70;65.50;;;;;;5040980;28;20037;-73
2022/05/04 12:40:02;;;;;;;14.25;4.88;;;15.80;64.10;;;;;;5031455;28;20187;-72
2022/05/04 12:42:28;;;;;;;10.00;4.43;;;16.00;64.60;;;;;;5031344;28;20493;-72
2022/05/04 12:44:59;;;;;;;10.18;4.63;;;16.10;66.00;;;;;;5030980;28;20081;-73
2022/05/04 12:47:24;;;;;;;14.68;4.65;;;16.20;64.70;;;;;;5031094;28;20124;-71
2022/05/04 12:49:50;;;;;;;10.80;4.40;;;16.30;65.00;;;;;;5033917;28;20116;-69
2022/05/04 12:52:17;;;;;;;11.73;4.63;;;16.40;65.00;;;;;;5032992;28;20388;-70
2022/05/04 12:54:42;;;;;;;12.23;4.57;;;16.50;60.00;;;;;;5033194;28;20511;-69
2022/05/04 12:57:08;;;;;;;11.35;5.15;;;16.50;58.90;;;;;;5025753;28;20042;-69
2022/05/04 12:59:34;;;;;;;12.32;4.80;;;16.50;61.90;;;;;;5031073;28;20543;-69
2022/05/04 13:02:00;;;;;;;12.00;4.45;;;16.60;57.80;;;;;;5029453;28;20033;-72
2022/05/04 13:04:26;;;;;;;10.90;3.92;;;16.60;59.90;;;;;;5043104;28;20083;-73
2022/05/04 13:06:52;;;;;;;12.60;4.15;;;16.70;59.00;;;;;;5027506;28;20077;-73
2022/05/04 13:09:17;;;;;;;8.90;3.45;;;16.80;58.30;;;;;;5030434;28;20122;-73
2022/05/04 13:11:43;;;;;;;11.75;4.28;;;16.90;58.60;;;;;;5062359;28;20045;-73
2022/05/04 13:14:08;;;;;;;11.55;4.10;;;16.90;58.00;;;;;;5063036;28;20092;-73
2022/05/04 13:16:36;;;;;;;11.00;4.60;;;17.00;58.00;;;;;;5038047;28;20099;-73
2022/05/04 13:19:04;;;;;;;13.40;4.88;;;17.00;56.30;;;;;;5033534;28;20050;-73
2022/05/04 13:21:31;;;;;;;12.10;4.22;;;17.00;55.10;;;;;;5028599;28;20041;-73
2022/05/04 13:23:56;;;;;;;8.90;3.75;;;17.10;56.50;;;;;;5029858;28;20044;-73